Lismore Airport
YLIS : now visible

Airfield :











YOU CAN JOIN US ON...

 
LOGIN :

Register | Disclaimer

   EN    FR    IT 

 









Legend :    VFR   Marginal VFR   IFR   Intensive IFR   Very Intensive IFR
Visi :
Ceiling :
>= 8 km
>= 3000ft
5 to 8 km
1000 to 3000 ft
1500m to 5 km
500 to 1000 ft
800 to 1500m
200 to 500 ft
< 800m
< 200 ft
Symbols :   Thunderstorms  Fog  Heavy snow  Heavy precipitations  Wind > 20 kt






- Airport Elevation : 35 ft
- IATA code : LSY


YLIS - Lismore

CURRENT METAR :
  • 220107Z AUTO 14015KT 5000 HZ SCT026 BKN032 OVC041 21/18 Q1019

EXPIRED METARs :
  • 220000Z AUTO 13011KT 9999 // SCT019 SCT046 BKN060 22/19 Q1019
  • 212330Z AUTO 17008KT 5000 HZ SCT013 BKN026 BKN035 22/20 Q1019
  • 212306Z AUTO 19009KT 9999 // SCT012 SCT021 BKN029 21/19 Q1019
  • 212300Z AUTO 19011KT 9999 // SCT013 SCT023 BKN029 21/19 Q1019
  • 212254Z AUTO 20011KT 9999 // SCT011 BKN017 BKN022 22/19 Q1019

TAF N/A
YBBB FIR / Oceania



MET'MAP, your aeronautical weather chart ! - Copyright ORBIFLY December 2007 - Disclaimer

ORBIFLY MET'MAP TEAM :

Programming & Development : Alexandra Zaïnal
Concept & original design : Baudouin d'Aumeries
Assistance for programming : Marc-Olivier Méhu
Technical & hardware support : Manuel Goepfert

Contact : metmap@orbifly.com




SOURCES & CREDITS :

   NOAA       Earth
Advisory